Time,TemperatureF,DewpointF,PressureIn,WindDirection,WindDirectionDegrees,WindSpeedMPH,WindSpeedGustMPH,Humidity,HourlyPrecipIn,Conditions,Clouds,dailyrainin,SolarRadiationWatts/m^2,SoftwareType,DateUTC
2013-06-25 00:13:00,66.1,64.0,29.79,SSE,159,7.0,10.0,93,0.00,,,0.00,0,weatherlink.com 1.10,2013-06-25 05:13:00,
2013-06-25 00:28:00,66.0,64.0,29.80,West,274,6.0,8.0,94,0.03,,,0.03,0,weatherlink.com 1.10,2013-06-25 05:28:00,
2013-06-25 00:43:00,65.8,64.0,29.79,SE,144,2.0,7.0,94,0.03,,,0.03,0,weatherlink.com 1.10,2013-06-25 05:43:00,
2013-06-25 01:13:00,66.7,64.0,29.86,NNW,346,13.0,23.0,91,0.04,,,0.04,0,weatherlink.com 1.10,2013-06-25 06:13:00,
2013-06-25 01:28:00,65.1,63.0,29.86,NW,309,7.0,18.0,94,0.20,,,0.23,0,weatherlink.com 1.10,2013-06-25 06:28:00,
2013-06-25 01:43:00,64.7,63.0,29.85,NNE,12,0.0,10.0,95,0.81,,,0.84,0,weatherlink.com 1.10,2013-06-25 06:43:00,
2013-06-25 01:58:00,65.3,64.0,29.81,South,180,8.0,9.0,96,1.24,,,1.27,0,weatherlink.com 1.10,2013-06-25 06:58:00,
2013-06-25 02:13:00,65.2,64.0,29.81,ESE,123,8.0,14.0,96,1.25,,,1.29,0,weatherlink.com 1.10,2013-06-25 07:13:00,
2013-06-25 02:28:00,65.4,65.0,29.79,SE,144,6.0,9.0,97,1.05,,,1.29,0,weatherlink.com 1.10,2013-06-25 07:28:00,
2013-06-25 02:43:00,65.4,65.0,29.79,SE,140,6.0,7.0,97,0.44,,,1.30,0,weatherlink.com 1.10,2013-06-25 07:43:00,
2013-06-25 02:58:00,65.2,64.0,29.78,SE,146,7.0,11.0,97,0.03,,,1.30,0,weatherlink.com 1.10,2013-06-25 07:58:00,
2013-06-25 03:13:00,65.2,64.0,29.79,SSE,147,5.0,10.0,97,0.01,,,1.30,0,weatherlink.com 1.10,2013-06-25 08:13:00,
2013-06-25 03:28:00,65.4,65.0,29.78,SSE,148,7.0,7.0,97,0.01,,,1.30,0,weatherlink.com 1.10,2013-06-25 08:28:00,
2013-06-25 03:43:00,65.3,65.0,29.78,SSE,153,7.0,9.0,97,0.00,,,1.30,0,weatherlink.com 1.10,2013-06-25 08:43:00,
2013-06-25 03:58:00,65.0,64.0,29.78,SE,140,4.0,9.0,97,0.00,,,1.30,0,weatherlink.com 1.10,2013-06-25 08:58:00,
2013-06-25 04:13:00,64.8,64.0,29.78,ESE,123,4.0,8.0,97,0.00,,,1.30,0,weatherlink.com 1.10,2013-06-25 09:13:00,
2013-06-25 04:28:00,64.8,64.0,29.79,East,94,6.0,8.0,97,0.00,,,1.30,0,weatherlink.com 1.10,2013-06-25 09:28:00,
2013-06-25 04:43:00,64.9,64.0,29.78,East,84,5.0,8.0,97,0.00,,,1.30,0,weatherlink.com 1.10,2013-06-25 09:43:00,
2013-06-25 04:58:00,65.0,64.0,29.78,East,101,7.0,8.0,97,0.00,,,1.30,0,weatherlink.com 1.10,2013-06-25 09:58:00,
2013-06-25 05:13:00,64.9,64.0,29.78,ESE,115,8.0,12.0,97,0.00,,,1.30,0,weatherlink.com 1.10,2013-06-25 10:13:00,
2013-06-25 05:28:00,65.0,64.0,29.78,ESE,106,10.0,11.0,97,0.00,,,1.30,0,weatherlink.com 1.10,2013-06-25 10:28:00,
2013-06-25 05:43:00,65.1,64.0,29.79,ENE,69,8.0,11.0,97,0.00,,,1.30,0,weatherlink.com 1.10,2013-06-25 10:43:00,
2013-06-25 05:58:00,65.2,64.0,29.78,East,82,11.0,15.0,97,0.00,,,1.30,11,weatherlink.com 1.10,2013-06-25 10:58:00,
2013-06-25 06:13:00,65.2,65.0,29.78,East,101,11.0,15.0,98,0.00,,,1.30,28,weatherlink.com 1.10,2013-06-25 11:13:00,
2013-06-25 06:28:00,65.1,64.0,29.77,East,101,13.0,14.0,97,0.00,,,1.30,9,weatherlink.com 1.10,2013-06-25 11:28:00,
2013-06-25 06:43:00,65.0,64.0,29.77,ESE,107,11.0,15.0,97,0.17,,,1.47,0,weatherlink.com 1.10,2013-06-25 11:43:00,
2013-06-25 06:59:00,65.0,64.0,29.80,East,100,2.0,14.0,97,0.36,,,1.66,0,weatherlink.com 1.10,2013-06-25 11:59:00,
2013-06-25 07:14:00,65.1,64.0,29.84,SE,146,18.0,18.0,97,0.72,,,2.02,0,weatherlink.com 1.10,2013-06-25 12:14:00,
2013-06-25 07:29:00,65.6,65.0,29.84,SSW,213,17.0,20.0,98,0.83,,,2.13,0,weatherlink.com 1.10,2013-06-25 12:29:00,
2013-06-25 07:44:00,64.8,64.0,29.77,NE,34,4.0,8.0,97,0.67,,,2.16,0,weatherlink.com 1.10,2013-06-25 12:44:00,
2013-06-25 07:59:00,64.9,64.0,29.81,NNW,340,2.0,15.0,97,0.50,,,2.16,0,weatherlink.com 1.10,2013-06-25 12:59:00,
2013-06-25 08:14:00,65.0,64.0,29.85,WNW,289,4.0,5.0,97,0.14,,,2.17,0,weatherlink.com 1.10,2013-06-25 13:14:00,
2013-06-25 08:29:00,64.9,64.0,29.82,SW,233,3.0,6.0,97,0.05,,,2.18,7,weatherlink.com 1.10,2013-06-25 13:29:00,
2013-06-25 08:44:00,64.8,64.0,29.84,SW,233,6.0,7.0,97,0.02,,,2.18,16,weatherlink.com 1.10,2013-06-25 13:44:00,
2013-06-25 08:59:00,65.0,64.0,29.84,SSW,205,3.0,9.0,97,0.02,,,2.18,35,weatherlink.com 1.10,2013-06-25 13:59:00,
2013-06-25 09:14:00,65.3,65.0,29.82,SSE,164,6.0,9.0,97,0.02,,,2.19,83,weatherlink.com 1.10,2013-06-25 14:14:00,
2013-06-25 09:29:00,65.7,65.0,29.80,SSE,161,11.0,15.0,97,0.01,,,2.19,130,weatherlink.com 1.10,2013-06-25 14:29:00,
2013-06-25 09:44:00,66.5,66.0,29.77,SE,142,10.0,14.0,97,0.01,,,2.19,188,weatherlink.com 1.10,2013-06-25 14:44:00,
2013-06-25 09:59:00,67.3,67.0,29.77,SSE,155,7.0,9.0,97,0.01,,,2.19,246,weatherlink.com 1.10,2013-06-25 14:59:00,
2013-06-25 10:14:00,68.4,68.0,29.77,SSE,167,8.0,10.0,97,0.00,,,2.19,322,weatherlink.com 1.10,2013-06-25 15:14:00,
2013-06-25 10:29:00,69.8,68.0,29.75,SSE,159,9.0,13.0,95,0.00,,,2.19,401,weatherlink.com 1.10,2013-06-25 15:29:00,
2013-06-25 10:44:00,71.2,69.0,29.75,SSE,164,11.0,15.0,93,0.00,,,2.19,434,weatherlink.com 1.10,2013-06-25 15:44:00,
2013-06-25 10:59:00,72.2,70.0,29.75,South,176,14.0,21.0,91,0.00,,,2.19,533,weatherlink.com 1.10,2013-06-25 15:59:00,
2013-06-25 11:14:00,73.5,70.0,29.75,South,173,11.0,21.0,89,0.00,,,2.19,445,weatherlink.com 1.10,2013-06-25 16:14:00,
2013-06-25 11:29:00,74.4,71.0,29.76,South,189,19.0,21.0,88,0.00,,,2.19,454,weatherlink.com 1.10,2013-06-25 16:29:00,
2013-06-25 11:44:00,75.1,72.0,29.75,South,188,16.0,21.0,89,0.00,,,2.19,446,weatherlink.com 1.10,2013-06-25 16:44:00,
2013-06-25 11:59:00,76.4,73.0,29.76,SSW,195,12.0,18.0,88,0.00,,,2.19,666,weatherlink.com 1.10,2013-06-25 16:59:00,
2013-06-25 12:14:00,77.6,74.0,29.77,South,178,9.0,17.0,87,0.00,,,2.19,858,weatherlink.com 1.10,2013-06-25 17:14:00,
2013-06-25 12:30:00,78.2,74.0,29.77,SW,217,10.0,17.0,86,0.00,,,2.19,471,weatherlink.com 1.10,2013-06-25 17:30:00,
2013-06-25 12:45:00,78.1,74.0,29.78,SW,227,8.0,13.0,87,0.00,,,2.19,304,weatherlink.com 1.10,2013-06-25 17:45:00,
2013-06-25 13:00:00,77.6,73.0,29.78,SSW,213,7.0,18.0,86,0.00,,,2.19,207,weatherlink.com 1.10,2013-06-25 18:00:00,
2013-06-25 13:15:00,77.6,74.0,29.77,SSW,212,7.0,12.0,88,0.00,,,2.19,315,weatherlink.com 1.10,2013-06-25 18:15:00,
2013-06-25 13:30:00,77.8,74.0,29.76,SSW,200,4.0,7.0,88,0.00,,,2.19,350,weatherlink.com 1.10,2013-06-25 18:30:00,
2013-06-25 13:45:00,78.3,74.0,29.75,SSW,192,2.0,7.0,87,0.00,,,2.19,243,weatherlink.com 1.10,2013-06-25 18:45:00,
2013-06-25 14:00:00,79.1,75.0,29.74,SSW,192,1.0,4.0,86,0.00,,,2.19,552,weatherlink.com 1.10,2013-06-25 19:00:00,
2013-06-25 14:15:00,80.0,75.0,29.73,SSW,192,1.0,4.0,85,0.00,,,2.19,376,weatherlink.com 1.10,2013-06-25 19:15:00,
2013-06-25 14:30:00,79.5,75.0,29.73,SE,138,2.0,8.0,86,0.00,,,2.19,230,weatherlink.com 1.10,2013-06-25 19:30:00,
2013-06-25 14:45:00,79.2,75.0,29.73,SE,144,5.0,7.0,87,0.00,,,2.19,160,weatherlink.com 1.10,2013-06-25 19:45:00,
2013-06-25 15:00:00,78.7,75.0,29.73,SSE,157,5.0,8.0,88,0.00,,,2.19,109,weatherlink.com 1.10,2013-06-25 20:00:00,
2013-06-25 15:15:00,78.4,75.0,29.73,SSE,159,5.0,8.0,89,0.00,,,2.19,142,weatherlink.com 1.10,2013-06-25 20:15:00,
2013-06-25 15:30:00,78.6,76.0,29.73,SSE,160,4.0,8.0,90,0.00,,,2.19,329,weatherlink.com 1.10,2013-06-25 20:30:00,
2013-06-25 15:45:00,80.1,76.0,29.73,SSE,161,5.0,6.0,88,0.00,,,2.19,329,weatherlink.com 1.10,2013-06-25 20:45:00,
2013-06-25 16:00:00,80.1,76.0,29.73,SSW,207,6.0,9.0,86,0.00,,,2.19,172,weatherlink.com 1.10,2013-06-25 21:00:00,
2013-06-25 16:15:00,79.6,75.0,29.73,SW,226,4.0,9.0,86,0.00,,,2.19,156,weatherlink.com 1.10,2013-06-25 21:15:00,
2013-06-25 16:30:00,79.8,76.0,29.72,SW,218,4.0,7.0,87,0.00,,,2.19,181,weatherlink.com 1.10,2013-06-25 21:30:00,
2013-06-25 16:45:00,79.8,76.0,29.71,SSW,205,5.0,7.0,87,0.00,,,2.19,123,weatherlink.com 1.10,2013-06-25 21:45:00,
2013-06-25 17:00:00,79.6,76.0,29.71,SW,221,6.0,10.0,88,0.00,,,2.19,186,weatherlink.com 1.10,2013-06-25 22:00:00,
2013-06-25 17:15:00,80.2,76.0,29.71,SW,222,6.0,8.0,87,0.00,,,2.19,406,weatherlink.com 1.10,2013-06-25 22:15:00,
2013-06-25 17:30:00,80.2,76.0,29.71,SW,219,8.0,9.0,86,0.00,,,2.19,207,weatherlink.com 1.10,2013-06-25 22:30:00,
2013-06-25 17:45:00,79.4,75.0,29.71,SW,229,6.0,9.0,85,0.00,,,2.19,158,weatherlink.com 1.10,2013-06-25 22:45:00,
2013-06-25 18:00:00,79.1,75.0,29.71,SW,216,5.0,10.0,86,0.00,,,2.19,88,weatherlink.com 1.10,2013-06-25 23:00:00,
2013-06-25 18:15:00,78.7,75.0,29.70,SW,217,3.0,5.0,87,0.00,,,2.19,90,weatherlink.com 1.10,2013-06-25 23:15:00,
2013-06-25 18:30:00,78.7,75.0,29.71,SW,217,1.0,4.0,88,0.00,,,2.19,93,weatherlink.com 1.10,2013-06-25 23:30:00,
2013-06-25 18:45:00,78.7,75.0,29.71,SW,217,3.0,4.0,89,0.00,,,2.19,76,weatherlink.com 1.10,2013-06-25 23:45:00,
2013-06-25 19:00:00,78.2,75.0,29.71,SW,217,2.0,4.0,89,0.00,,,2.19,47,weatherlink.com 1.10,2013-06-26 00:00:00,
2013-06-25 19:15:00,77.6,75.0,29.71,SW,217,2.0,3.0,90,0.00,,,2.19,51,weatherlink.com 1.10,2013-06-26 00:15:00,
2013-06-25 19:30:00,77.2,74.0,29.70,SW,217,3.0,4.0,90,0.00,,,2.19,37,weatherlink.com 1.10,2013-06-26 00:30:00,
2013-06-25 19:45:00,76.9,74.0,29.70,SW,217,0.0,2.0,91,0.00,,,2.19,33,weatherlink.com 1.10,2013-06-26 00:45:00,
2013-06-25 20:00:00,76.6,74.0,29.70,SW,217,0.0,2.0,91,0.00,,,2.19,21,weatherlink.com 1.10,2013-06-26 01:00:00,
2013-06-25 20:15:00,76.4,74.0,29.70,SW,217,2.0,3.0,91,0.00,,,2.19,19,weatherlink.com 1.10,2013-06-26 01:15:00,
2013-06-25 20:30:00,75.8,73.0,29.70,SW,217,3.0,3.0,92,0.00,,,2.19,7,weatherlink.com 1.10,2013-06-26 01:30:00,
2013-06-25 20:45:00,74.9,73.0,29.70,SW,217,2.0,3.0,93,0.00,,,2.19,0,weatherlink.com 1.10,2013-06-26 01:45:00,
2013-06-25 21:00:00,74.3,73.0,29.70,SW,217,2.0,2.0,94,0.00,,,2.19,0,weatherlink.com 1.10,2013-06-26 02:00:00,
2013-06-25 21:15:00,74.1,73.0,29.70,SW,217,1.0,3.0,95,0.00,,,2.19,0,weatherlink.com 1.10,2013-06-26 02:15:00,
2013-06-25 21:30:00,74.1,73.0,29.70,SW,217,1.0,2.0,95,0.00,,,2.19,0,weatherlink.com 1.10,2013-06-26 02:30:00,
2013-06-25 21:45:00,73.7,72.0,29.70,SW,217,2.0,3.0,95,0.00,,,2.19,0,weatherlink.com 1.10,2013-06-26 02:45:00,
2013-06-25 22:00:00,73.4,72.0,29.70,SW,217,2.0,3.0,95,0.00,,,2.19,0,weatherlink.com 1.10,2013-06-26 03:00:00,
2013-06-25 22:15:00,73.3,72.0,29.71,SW,217,0.0,4.0,96,0.00,,,2.19,0,weatherlink.com 1.10,2013-06-26 03:15:00,
2013-06-25 22:30:00,73.1,72.0,29.70,SW,217,4.0,6.0,96,0.00,,,2.19,0,weatherlink.com 1.10,2013-06-26 03:30:00,
2013-06-25 22:44:00,73.2,72.0,29.70,SE,134,5.0,7.0,96,0.00,,,2.19,0,weatherlink.com 1.10,2013-06-26 03:44:00,
2013-06-25 22:59:00,73.2,72.0,29.70,SE,132,6.0,8.0,96,0.00,,,2.19,0,weatherlink.com 1.10,2013-06-26 03:59:00,
2013-06-25 23:15:00,73.0,72.0,29.71,SE,132,7.0,8.0,96,0.00,,,2.19,0,weatherlink.com 1.10,2013-06-26 04:15:00,
2013-06-25 23:30:00,72.6,71.0,29.70,SE,124,6.0,8.0,95,0.00,,,2.19,0,weatherlink.com 1.10,2013-06-26 04:30:00,
2013-06-25 23:45:00,72.5,71.0,29.70,ESE,121,7.0,8.0,96,0.00,,,2.19,0,weatherlink.com 1.10,2013-06-26 04:45:00,